Valders, Wisconsin
Current Conditions -  °F | °C
As of 9:56 AM on Wednesday 28 Jan 2015 (Local Time) from KMTW Reporting Station
Overcast Overcast  
Wind Chill: 22°   Ceiling: 2200
Heat Index: 30°   Visibility: 10mi
Dew Point: 25°   Wind: 9mph
Humidity: 82%   Direction: 210°SSW
Pressure: 30.23"   Gusts: NA
Location:  44.07°N, 87.88°W
Report Text: KMTW 281556Z AUTO 21008KT 10SM OVC022 M01/M04 A3023 RMK AO2 SLP263 T10111039 FZRANO
Loading
Personal Weather Stations






























Interactive Weather Map New forecast layout! Learn more

10-Day Weather Forecast

Advertisements
Track Severe Weather on mobile